Wind From: 11-12-2017 12:03 Until: 12-12-2017 06:00 warning for: Wind Level: Orange info button

Power and phone distribution networks may be disrupted for relatively long periods., Roofs and chimneys can be damaged. , Tree branches may break. , Vehicles can be deported. , Traffic may be disrupted, particularly on secondary roads in forest areas. Limit your trips. , Limit your speed in highway driving, especially if you drive a vehicle or hitch sensitive to wind. , Do not go for walks in forests or along the coast., In town, be vigilant against possible falling objects., Do not work on roofs and do not touch any electrical line fallen on the ground., Store or secure sensitive objects to wind or likely to be damaged., Always install power generators outside buildings. 


Meteo18 Weather Cam more information Meteo18 Weather Cam


Thunder radar more information blitzortung!


Rain radar more information rain snow radar


Visit our other weather sites:

Template documentation
and downloads

And another site



Weather Underground History page Text

Daily Summary for September 5, 2017 Units:  Metric    English   Both
« Previous Day
Next Day »
Daily Weekly Monthly Yearly Custom
  High: Low: Average:
Temperature: 22.9 °C 17.7 °C 20.1 °C
Dew Point: 16.9 °C 14.7 °C 16 °C
Humidity: 90 % 67 % 78 %
Wind Speed: 19.3 km/h 0.0 km/h 5.6 km/h
Wind Gust: 27.4 km/h - -
Wind:- - WSW
Pressure: 1021.9 hPa 1020.2 hPa -
Precipitation: 0.0 mm    
Historical Graphs
 
 
Tabular Data for September 5, 2017
Time Temperature Dew Point Pressure Wind Wind Speed Wind Gust Humidity Rainfall Rate (Hourly)
00:02 18.1 °C 15.2 °C 1020.2 hPa Calm   1.6 km/h 83 % 0.0 mm
00:07 18.1 °C 15.0 °C 1020.2 hPa Calm   1.6 km/h 82 % 0.0 mm
00:12 18.0 °C 14.7 °C 1020.5 hPa Calm   1.6 km/h 81 % 0.0 mm
00:17 18.0 °C 14.9 °C 1020.2 hPa Calm   1.6 km/h 82 % 0.0 mm
00:22 18.1 °C 15.0 °C 1020.5 hPa Calm   1.6 km/h 82 % 0.0 mm
00:32 18.1 °C 15.0 °C 1020.5 hPa Calm     82 % 0.0 mm
00:42 18.2 °C 15.1 °C 1020.5 hPa Calm     82 % 0.0 mm
00:47 18.3 °C 15.2 °C 1020.5 hPa Calm     82 % 0.0 mm
00:52 18.3 °C 15.2 °C 1020.5 hPa Calm     82 % 0.0 mm
00:57 18.3 °C 15.2 °C 1020.5 hPa Calm     82 % 0.0 mm
01:02 18.3 °C 15.2 °C 1020.5 hPa Calm     82 % 0.0 mm
01:07 18.3 °C 15.2 °C 1020.5 hPa Calm     82 % 0.0 mm
01:12 18.3 °C 15.2 °C 1020.5 hPa Calm     82 % 0.0 mm
01:17 18.3 °C 15.2 °C 1020.5 hPa Calm     82 % 0.0 mm
01:22 18.3 °C 15.2 °C 1020.5 hPa Calm     82 % 0.0 mm
01:27 18.3 °C 15.4 °C 1020.5 hPa Calm     83 % 0.0 mm
01:32 18.3 °C 15.4 °C 1020.5 hPa Calm     83 % 0.0 mm
01:37 18.3 °C 15.4 °C 1020.5 hPa Calm     83 % 0.0 mm
01:42 18.3 °C 15.4 °C 1020.5 hPa Calm     83 % 0.0 mm
01:47 18.3 °C 15.5 °C 1020.5 hPa Calm     84 % 0.0 mm
01:52 18.4 °C 15.6 °C 1020.5 hPa Calm     84 % 0.0 mm
02:02 18.7 °C 15.8 °C 1020.2 hPa Calm     83 % 0.0 mm
02:07 18.8 °C 15.9 °C 1020.2 hPa Calm     83 % 0.0 mm
02:12 19.0 °C 15.9 °C 1020.2 hPa Calm     82 % 0.0 mm
02:17 19.2 °C 16.1 °C 1020.2 hPa WSW 3.2 km/h 3.2 km/h 82 % 0.0 mm
02:22 19.3 °C 16.1 °C 1020.5 hPa South 1.6 km/h 4.8 km/h 82 % 0.0 mm
02:27 19.2 °C 15.9 °C 1020.5 hPa Calm   4.8 km/h 81 % 0.0 mm
02:32 18.8 °C 15.3 °C 1020.5 hPa Calm   4.8 km/h 80 % 0.0 mm
02:37 18.6 °C 15.1 °C 1020.5 hPa ESE 1.6 km/h 3.2 km/h 80 % 0.0 mm
02:42 18.7 °C 15.4 °C 1020.5 hPa Calm   4.8 km/h 81 % 0.0 mm
02:47 18.7 °C 15.4 °C 1020.5 hPa ESE 1.6 km/h 4.8 km/h 81 % 0.0 mm
02:52 18.7 °C 15.4 °C 1020.5 hPa Calm   4.8 km/h 81 % 0.0 mm
02:57 18.7 °C 15.6 °C 1020.2 hPa Calm   4.8 km/h 82 % 0.0 mm
03:02 18.7 °C 15.6 °C 1020.2 hPa Calm   1.6 km/h 82 % 0.0 mm
03:07 18.7 °C 15.6 °C 1020.2 hPa Calm   1.6 km/h 82 % 0.0 mm
03:17 18.6 °C 15.5 °C 1020.5 hPa Calm   1.6 km/h 82 % 0.0 mm
03:22 18.5 °C 15.4 °C 1020.2 hPa Calm   1.6 km/h 82 % 0.0 mm
03:32 18.4 °C 15.5 °C 1020.5 hPa Calm   1.6 km/h 83 % 0.0 mm
03:37 18.4 °C 15.5 °C 1020.2 hPa Calm   1.6 km/h 83 % 0.0 mm
03:47 18.5 °C 15.7 °C 1020.5 hPa Calm   1.6 km/h 84 % 0.0 mm
03:52 18.5 °C 15.7 °C 1020.5 hPa Calm   1.6 km/h 84 % 0.0 mm
03:57 18.6 °C 15.8 °C 1020.2 hPa Calm   1.6 km/h 84 % 0.0 mm
04:02 18.6 °C 15.8 °C 1020.5 hPa Calm   1.6 km/h 84 % 0.0 mm
04:07 18.6 °C 16.0 °C 1020.2 hPa Calm   1.6 km/h 85 % 0.0 mm
04:12 18.7 °C 16.1 °C 1020.2 hPa Calm   1.6 km/h 85 % 0.0 mm
04:17 18.7 °C 16.1 °C 1020.2 hPa Calm   1.6 km/h 85 % 0.0 mm
04:22 18.7 °C 16.1 °C 1020.2 hPa Calm   1.6 km/h 85 % 0.0 mm
04:32 18.7 °C 16.1 °C 1020.2 hPa Calm     85 % 0.0 mm
04:37 18.7 °C 16.1 °C 1020.5 hPa Calm     85 % 0.0 mm
04:42 18.7 °C 16.1 °C 1020.5 hPa Calm     85 % 0.0 mm
04:47 18.7 °C 16.1 °C 1020.5 hPa Calm     85 % 0.0 mm
04:52 18.7 °C 16.1 °C 1020.5 hPa Calm     85 % 0.0 mm
04:57 18.7 °C 16.1 °C 1020.2 hPa Calm     85 % 0.0 mm
05:02 18.7 °C 16.1 °C 1020.5 hPa Calm     85 % 0.0 mm
05:17 18.7 °C 16.1 °C 1020.5 hPa Calm     85 % 0.0 mm
05:22 18.7 °C 16.1 °C 1020.5 hPa Calm     85 % 0.0 mm
05:27 18.7 °C 16.1 °C 1020.5 hPa Calm     85 % 0.0 mm
05:32 18.7 °C 16.1 °C 1020.5 hPa Calm     85 % 0.0 mm
05:42 18.7 °C 16.3 °C 1020.5 hPa South 1.6 km/h 3.2 km/h 86 % 0.0 mm
05:47 18.7 °C 16.3 °C 1020.5 hPa Calm   3.2 km/h 86 % 0.0 mm
05:52 18.7 °C 16.3 °C 1020.5 hPa Calm   3.2 km/h 86 % 0.0 mm
05:57 18.7 °C 16.3 °C 1020.5 hPa Calm   3.2 km/h 86 % 0.0 mm
06:02 18.6 °C 16.4 °C 1020.5 hPa Calm   3.2 km/h 87 % 0.0 mm
06:12 18.6 °C 16.4 °C 1020.5 hPa Calm   3.2 km/h 87 % 0.0 mm
06:17 18.6 °C 16.4 °C 1020.5 hPa South 1.6 km/h 3.2 km/h 87 % 0.0 mm
06:22 18.6 °C 16.4 °C 1020.5 hPa Calm   3.2 km/h 87 % 0.0 mm
06:32 18.5 °C 16.5 °C 1020.5 hPa SW 1.6 km/h 4.8 km/h 88 % 0.0 mm
06:37 18.4 °C 16.4 °C 1020.5 hPa SW 3.2 km/h 4.8 km/h 88 % 0.0 mm
06:47 18.4 °C 16.4 °C 1020.5 hPa SW 1.6 km/h 4.8 km/h 88 % 0.0 mm
06:52 18.4 °C 16.4 °C 1020.5 hPa Calm   4.8 km/h 88 % 0.0 mm
06:57 18.3 °C 16.3 °C 1020.5 hPa Calm   4.8 km/h 88 % 0.0 mm
07:02 18.3 °C 16.3 °C 1020.5 hPa Calm   4.8 km/h 88 % 0.0 mm
07:12 18.1 °C 16.3 °C 1020.5 hPa Calm   3.2 km/h 89 % 0.0 mm
07:17 18.1 °C 16.3 °C 1020.5 hPa Calm   4.8 km/h 89 % 0.0 mm
07:22 17.9 °C 16.1 °C 1020.5 hPa Calm   4.8 km/h 89 % 0.0 mm
07:32 17.8 °C 16.1 °C 1020.9 hPa Calm   3.2 km/h 90 % 0.0 mm
07:37 17.8 °C 16.1 °C 1020.9 hPa Calm   3.2 km/h 90 % 0.0 mm
07:42 17.8 °C 16.1 °C 1020.9 hPa Calm   3.2 km/h 90 % 0.0 mm
07:47 17.8 °C 16.1 °C 1020.9 hPa Calm   1.6 km/h 90 % 0.0 mm
07:52 17.7 °C 16.0 °C 1020.9 hPa SSW 1.6 km/h 1.6 km/h 90 % 0.0 mm
07:57 17.7 °C 16.0 °C 1020.9 hPa SSW 1.6 km/h 3.2 km/h 90 % 0.0 mm
08:02 17.7 °C 16.0 °C 1020.9 hPa Calm   4.8 km/h 90 % 0.0 mm
08:12 17.8 °C 16.1 °C 1020.9 hPa SSW 3.2 km/h 4.8 km/h 90 % 0.0 mm
08:17 17.9 °C 16.2 °C 1020.9 hPa SW 1.6 km/h 6.4 km/h 90 % 0.0 mm
08:27 18.1 °C 16.3 °C 1020.9 hPa SW 4.8 km/h 6.4 km/h 89 % 0.0 mm
08:32 18.2 °C 16.4 °C 1020.9 hPa WSW 4.8 km/h 4.8 km/h 89 % 0.0 mm
08:42 18.3 °C 16.5 °C 1020.9 hPa WSW 3.2 km/h 11.3 km/h 89 % 0.0 mm
08:47 18.3 °C 16.3 °C 1020.9 hPa West 4.8 km/h 11.3 km/h 88 % 0.0 mm
08:52 18.3 °C 16.1 °C 1020.9 hPa SW 6.4 km/h 9.7 km/h 87 % 0.0 mm
08:57 18.3 °C 16.1 °C 1021.2 hPa WSW 8.0 km/h 12.9 km/h 87 % 0.0 mm
09:02 18.3 °C 15.9 °C 1021.2 hPa SW 6.4 km/h 12.9 km/h 86 % 0.0 mm
09:12 18.3 °C 15.9 °C 1021.2 hPa WSW 4.8 km/h 14.5 km/h 86 % 0.0 mm
09:17 18.3 °C 15.9 °C 1021.2 hPa WSW 8.0 km/h 14.5 km/h 86 % 0.0 mm
09:22 18.3 °C 15.7 °C 1021.2 hPa WSW 8.0 km/h 12.9 km/h 85 % 0.0 mm
09:32 18.5 °C 15.9 °C 1021.2 hPa West 6.4 km/h 16.1 km/h 85 % 0.0 mm
09:37 18.7 °C 15.9 °C 1021.2 hPa SW 6.4 km/h 16.1 km/h 84 % 0.0 mm
09:42 18.9 °C 15.9 °C 1020.9 hPa Calm   16.1 km/h 83 % 0.0 mm
09:47 18.8 °C 15.7 °C 1021.2 hPa West 8.0 km/h 16.1 km/h 82 % 0.0 mm
09:52 18.7 °C 15.8 °C 1021.2 hPa West 8.0 km/h 12.9 km/h 83 % 0.0 mm
09:57 18.7 °C 15.8 °C 1021.2 hPa SW 6.4 km/h 12.9 km/h 83 % 0.0 mm
10:02 18.8 °C 15.9 °C 1020.9 hPa SSW 6.4 km/h 14.5 km/h 83 % 0.0 mm
10:12 18.9 °C 15.8 °C 1021.2 hPa SW 8.0 km/h 19.3 km/h 82 % 0.0 mm
10:17 19.0 °C 16.0 °C 1021.2 hPa SW 4.8 km/h 19.3 km/h 83 % 0.0 mm
10:22 19.0 °C 15.9 °C 1021.2 hPa WSW 6.4 km/h 19.3 km/h 82 % 0.0 mm
10:32 19.1 °C 16.0 °C 1021.2 hPa SW 9.7 km/h 14.5 km/h 82 % 0.0 mm
10:37 19.2 °C 15.9 °C 1021.2 hPa SSW 4.8 km/h 11.3 km/h 81 % 0.0 mm
10:42 19.2 °C 16.1 °C 1021.2 hPa Calm   12.9 km/h 82 % 0.0 mm
10:47 19.3 °C 16.1 °C 1021.2 hPa SW 6.4 km/h 12.9 km/h 82 % 0.0 mm
10:52 19.4 °C 16.1 °C 1021.2 hPa WSW 8.0 km/h 14.5 km/h 81 % 0.0 mm
11:02 19.6 °C 16.1 °C 1021.6 hPa SW 4.8 km/h 16.1 km/h 80 % 0.0 mm
11:07 19.8 °C 16.1 °C 1021.2 hPa WSW 4.8 km/h 16.1 km/h 79 % 0.0 mm
11:12 19.8 °C 15.9 °C 1021.2 hPa SW 6.4 km/h 12.9 km/h 78 % 0.0 mm
11:17 20.2 °C 16.4 °C 1021.2 hPa SW 11.3 km/h 12.9 km/h 79 % 0.0 mm
11:22 20.2 °C 16.2 °C 1021.2 hPa SW 9.7 km/h 14.5 km/h 78 % 0.0 mm
11:27 20.0 °C 15.8 °C 1021.6 hPa SW 6.4 km/h 19.3 km/h 77 % 0.0 mm
11:32 20.0 °C 15.8 °C 1021.6 hPa SW 9.7 km/h 19.3 km/h 77 % 0.0 mm
11:37 20.2 °C 16.0 °C 1021.2 hPa SW 12.9 km/h 19.3 km/h 77 % 0.0 mm
11:42 20.1 °C 15.7 °C 1021.2 hPa WSW 14.5 km/h 20.9 km/h 76 % 0.0 mm
11:47 20.1 °C 15.9 °C 1021.2 hPa SW 8.0 km/h 20.9 km/h 77 % 0.0 mm
11:52 20.3 °C 16.1 °C 1021.2 hPa West 8.0 km/h 20.9 km/h 77 % 0.0 mm
12:02 20.5 °C 16.1 °C 1021.2 hPa SW 8.0 km/h 17.7 km/h 76 % 0.0 mm
12:07 20.6 °C 16.0 °C 1021.2 hPa South 12.9 km/h 17.7 km/h 75 % 0.0 mm
12:12 20.9 °C 16.1 °C 1021.2 hPa SW 19.3 km/h 19.3 km/h 74 % 0.0 mm
12:17 20.9 °C 15.9 °C 1021.2 hPa SSW 8.0 km/h 20.9 km/h 73 % 0.0 mm
12:22 20.8 °C 16.0 °C 1021.2 hPa SW 12.9 km/h 20.9 km/h 74 % 0.0 mm
12:32 21.3 °C 16.3 °C 1021.2 hPa SW 9.7 km/h 17.7 km/h 73 % 0.0 mm
12:42 21.8 °C 16.3 °C 1020.9 hPa SW 8.0 km/h 22.5 km/h 71 % 0.0 mm
12:47 21.9 °C 16.2 °C 1020.9 hPa SSW 9.7 km/h 22.5 km/h 70 % 0.0 mm
12:52 22.1 °C 16.1 °C 1020.9 hPa West 11.3 km/h 22.5 km/h 69 % 0.0 mm
12:57 22.4 °C 16.2 °C 1020.9 hPa SW 12.9 km/h 22.5 km/h 68 % 0.0 mm
13:02 22.2 °C 16.2 °C 1020.9 hPa West 8.0 km/h 24.1 km/h 69 % 0.0 mm
13:07 22.2 °C 16.0 °C 1020.9 hPa West 9.7 km/h 24.1 km/h 68 % 0.0 mm
13:12 22.2 °C 16.2 °C 1020.9 hPa WSW 12.9 km/h 24.1 km/h 69 % 0.0 mm
13:17 22.4 °C 16.2 °C 1020.9 hPa West 4.8 km/h 22.5 km/h 68 % 0.0 mm
13:22 22.6 °C 16.2 °C 1020.9 hPa WSW 8.0 km/h 22.5 km/h 67 % 0.0 mm
13:27 22.4 °C 16.0 °C 1020.9 hPa WSW 12.9 km/h 24.1 km/h 67 % 0.0 mm
13:32 22.3 °C 16.1 °C 1020.9 hPa SW 11.3 km/h 24.1 km/h 68 % 0.0 mm
13:37 22.1 °C 16.1 °C 1020.9 hPa West 8.0 km/h 24.1 km/h 69 % 0.0 mm
13:42 22.0 °C 16.3 °C 1020.9 hPa WSW 12.9 km/h 19.3 km/h 70 % 0.0 mm
13:47 21.9 °C 16.4 °C 1020.9 hPa WSW 12.9 km/h 19.3 km/h 71 % 0.0 mm
13:52 21.8 °C 16.3 °C 1020.5 hPa SSW 14.5 km/h 19.3 km/h 71 % 0.0 mm
13:57 21.9 °C 16.0 °C 1020.5 hPa SW 17.7 km/h 20.9 km/h 69 % 0.0 mm
14:02 22.0 °C 16.0 °C 1020.5 hPa WSW 14.5 km/h 20.9 km/h 69 % 0.0 mm
14:07 21.9 °C 16.0 °C 1020.5 hPa West 4.8 km/h 20.9 km/h 69 % 0.0 mm
14:12 21.9 °C 16.2 °C 1020.9 hPa WSW 9.7 km/h 19.3 km/h 70 % 0.0 mm
14:17 21.8 °C 16.1 °C 1020.5 hPa WSW 9.7 km/h 19.3 km/h 70 % 0.0 mm
14:22 21.7 °C 16.2 °C 1020.9 hPa West 8.0 km/h 20.9 km/h 71 % 0.0 mm
14:27 21.7 °C 16.2 °C 1020.9 hPa SW 14.5 km/h 20.9 km/h 71 % 0.0 mm
14:32 21.7 °C 16.0 °C 1020.9 hPa SW 6.4 km/h 19.3 km/h 70 % 0.0 mm
14:37 21.8 °C 15.9 °C 1020.9 hPa SW 11.3 km/h 19.3 km/h 69 % 0.0 mm
14:42 21.9 °C 15.7 °C 1020.9 hPa SW 4.8 km/h 17.7 km/h 68 % 0.0 mm
14:52 22.0 °C 15.8 °C 1020.9 hPa West 4.8 km/h 20.9 km/h 68 % 0.0 mm
14:57 22.0 °C 15.6 °C 1020.9 hPa SW 8.0 km/h 20.9 km/h 67 % 0.0 mm
15:02 21.9 °C 15.7 °C 1020.9 hPa WSW 11.3 km/h 20.9 km/h 68 % 0.0 mm
15:07 21.7 °C 16.0 °C 1020.9 hPa WSW 8.0 km/h 24.1 km/h 70 % 0.0 mm
15:17 21.5 °C 15.8 °C 1020.9 hPa WNW 9.7 km/h 24.1 km/h 70 % 0.0 mm
15:22 21.6 °C 16.1 °C 1020.9 hPa WNW 6.4 km/h 19.3 km/h 71 % 0.0 mm
15:27 21.7 °C 16.0 °C 1020.9 hPa WNW 6.4 km/h 19.3 km/h 70 % 0.0 mm
15:32 21.8 °C 16.1 °C 1021.2 hPa West 6.4 km/h 16.1 km/h 70 % 0.0 mm
15:42 21.8 °C 16.1 °C 1020.9 hPa West 9.7 km/h 20.9 km/h 70 % 0.0 mm
15:47 21.8 °C 15.9 °C 1020.9 hPa West 12.9 km/h 20.9 km/h 69 % 0.0 mm
15:52 21.8 °C 16.1 °C 1020.9 hPa WSW 14.5 km/h 17.7 km/h 70 % 0.0 mm
15:57 21.7 °C 16.2 °C 1020.9 hPa West 12.9 km/h 20.9 km/h 71 % 0.0 mm
16:02 21.6 °C 16.1 °C 1020.9 hPa WSW 4.8 km/h 20.9 km/h 71 % 0.0 mm
16:07 21.8 °C 16.3 °C 1020.9 hPa WNW 9.7 km/h 20.9 km/h 71 % 0.0 mm
16:12 21.9 °C 16.2 °C 1020.9 hPa SW 9.7 km/h 20.9 km/h 70 % 0.0 mm
16:17 22.1 °C 15.9 °C 1020.9 hPa WSW 6.4 km/h 17.7 km/h 68 % 0.0 mm
16:22 22.1 °C 15.9 °C 1020.9 hPa WSW 8.0 km/h 22.5 km/h 68 % 0.0 mm
16:27 22.3 °C 16.1 °C 1020.9 hPa West 9.7 km/h 24.1 km/h 68 % 0.0 mm
16:37 22.3 °C 16.1 °C 1020.5 hPa WSW 9.7 km/h 24.1 km/h 68 % 0.0 mm
16:42 22.4 °C 16.2 °C 1020.9 hPa WSW 4.8 km/h 22.5 km/h 68 % 0.0 mm
16:47 22.4 °C 16.4 °C 1020.5 hPa West 11.3 km/h 22.5 km/h 69 % 0.0 mm
16:52 22.4 °C 16.4 °C 1020.5 hPa West 8.0 km/h 19.3 km/h 69 % 0.0 mm
16:57 22.6 °C 16.6 °C 1020.5 hPa SSW 6.4 km/h 19.3 km/h 69 % 0.0 mm
17:02 22.9 °C 16.7 °C 1020.5 hPa SW 6.4 km/h 19.3 km/h 68 % 0.0 mm
17:07 22.9 °C 16.4 °C 1020.5 hPa West 12.9 km/h 16.1 km/h 67 % 0.0 mm
17:12 22.8 °C 16.4 °C 1020.5 hPa WSW 16.1 km/h 19.3 km/h 67 % 0.0 mm
17:17 22.7 °C 16.3 °C 1020.5 hPa West 6.4 km/h 22.5 km/h 67 % 0.0 mm
17:22 22.7 °C 16.3 °C 1020.5 hPa SSW 6.4 km/h 22.5 km/h 67 % 0.0 mm
17:27 22.6 °C 16.4 °C 1020.5 hPa West 4.8 km/h 22.5 km/h 68 % 0.0 mm
17:32 22.6 °C 16.4 °C 1020.2 hPa WNW 11.3 km/h 19.3 km/h 68 % 0.0 mm
17:37 22.6 °C 16.6 °C 1020.5 hPa WSW 9.7 km/h 25.7 km/h 69 % 0.0 mm
17:42 22.4 °C 16.4 °C 1020.5 hPa WSW 11.3 km/h 25.7 km/h 69 % 0.0 mm
17:47 22.4 °C 16.4 °C 1020.5 hPa NW 4.8 km/h 25.7 km/h 69 % 0.0 mm
17:52 22.4 °C 16.4 °C 1020.5 hPa WSW 12.9 km/h 24.1 km/h 69 % 0.0 mm
17:57 22.2 °C 16.5 °C 1020.5 hPa WNW 16.1 km/h 24.1 km/h 70 % 0.0 mm
18:02 22.2 °C 16.5 °C 1020.5 hPa SSW 9.7 km/h 27.4 km/h 70 % 0.0 mm
18:12 22.0 °C 16.7 °C 1020.5 hPa WSW 17.7 km/h 27.4 km/h 72 % 0.0 mm
18:17 21.9 °C 16.6 °C 1020.5 hPa West 16.1 km/h 24.1 km/h 72 % 0.0 mm
18:22 21.8 °C 16.3 °C 1020.5 hPa WSW 6.4 km/h 22.5 km/h 71 % 0.0 mm
18:32 21.9 °C 16.2 °C 1020.5 hPa SW 14.5 km/h 20.9 km/h 70 % 0.0 mm
18:42 21.9 °C 16.4 °C 1020.5 hPa WSW 9.7 km/h 20.9 km/h 71 % 0.0 mm
18:47 22.0 °C 16.5 °C 1020.5 hPa SW 12.9 km/h 20.9 km/h 71 % 0.0 mm
18:52 21.9 °C 16.6 °C 1020.5 hPa SW 12.9 km/h 20.9 km/h 72 % 0.0 mm
18:57 21.9 °C 16.6 °C 1020.5 hPa SW 9.7 km/h 20.9 km/h 72 % 0.0 mm
19:02 22.0 °C 16.7 °C 1020.5 hPa WSW 11.3 km/h 20.9 km/h 72 % 0.0 mm
19:12 22.0 °C 16.7 °C 1020.5 hPa WSW 9.7 km/h 19.3 km/h 72 % 0.0 mm
19:17 21.9 °C 16.8 °C 1020.5 hPa SW 12.9 km/h 19.3 km/h 73 % 0.0 mm
19:22 21.9 °C 16.6 °C 1020.5 hPa SW 8.0 km/h 19.3 km/h 72 % 0.0 mm
19:27 21.9 °C 16.6 °C 1020.5 hPa SW 16.1 km/h 16.1 km/h 72 % 0.0 mm
19:32 21.9 °C 16.6 °C 1020.5 hPa SW 9.7 km/h 17.7 km/h 72 % 0.0 mm
19:37 21.9 °C 16.6 °C 1020.5 hPa WSW 8.0 km/h 20.9 km/h 72 % 0.0 mm
19:42 21.8 °C 16.7 °C 1020.5 hPa West 3.2 km/h 20.9 km/h 73 % 0.0 mm
19:47 21.8 °C 16.7 °C 1020.5 hPa SW 4.8 km/h 20.9 km/h 73 % 0.0 mm
19:52 21.8 °C 16.7 °C 1020.9 hPa West 12.9 km/h 17.7 km/h 73 % 0.0 mm
19:57 21.8 °C 16.7 °C 1020.9 hPa SW 12.9 km/h 17.7 km/h 73 % 0.0 mm
20:02 21.8 °C 16.7 °C 1020.9 hPa SW 6.4 km/h 16.1 km/h 73 % 0.0 mm
20:07 21.7 °C 16.6 °C 1020.9 hPa WSW 8.0 km/h 16.1 km/h 73 % 0.0 mm
20:12 21.7 °C 16.6 °C 1020.9 hPa SW 4.8 km/h 16.1 km/h 73 % 0.0 mm
20:17 21.7 °C 16.9 °C 1020.9 hPa SW 6.4 km/h 14.5 km/h 74 % 0.0 mm
20:27 21.6 °C 16.8 °C 1020.9 hPa SSW 3.2 km/h 14.5 km/h 74 % 0.0 mm
20:37 21.6 °C 16.8 °C 1020.9 hPa SW 8.0 km/h 11.3 km/h 74 % 0.0 mm
20:42 21.6 °C 16.8 °C 1021.2 hPa SW 4.8 km/h 11.3 km/h 74 % 0.0 mm
20:48 21.5 °C 16.7 °C 1021.2 hPa WSW 6.4 km/h 16.1 km/h 74 % 0.0 mm
20:57 21.5 °C 16.5 °C 1021.2 hPa WSW 6.4 km/h 14.5 km/h 73 % 0.0 mm
21:07 21.4 °C 16.4 °C 1021.2 hPa WSW 4.8 km/h 12.9 km/h 73 % 0.0 mm
21:12 21.3 °C 16.3 °C 1021.2 hPa WSW 1.6 km/h 12.9 km/h 73 % 0.0 mm
21:17 21.3 °C 16.3 °C 1021.6 hPa SW 1.6 km/h 11.3 km/h 73 % 0.0 mm
21:22 21.2 °C 16.4 °C 1021.2 hPa SW 3.2 km/h 8.0 km/h 74 % 0.0 mm
21:27 21.1 °C 16.3 °C 1021.6 hPa WSW 4.8 km/h 8.0 km/h 74 % 0.0 mm
21:32 21.0 °C 16.2 °C 1021.6 hPa WSW 4.8 km/h 12.9 km/h 74 % 0.0 mm
21:37 20.9 °C 16.1 °C 1021.6 hPa West 9.7 km/h 14.5 km/h 74 % 0.0 mm
21:42 20.9 °C 15.9 °C 1021.6 hPa West 4.8 km/h 14.5 km/h 73 % 0.0 mm
21:52 20.8 °C 16.0 °C 1021.6 hPa WSW 6.4 km/h 14.5 km/h 74 % 0.0 mm
21:57 20.7 °C 15.9 °C 1021.6 hPa SW 8.0 km/h 14.5 km/h 74 % 0.0 mm
22:02 20.6 °C 15.8 °C 1021.6 hPa WSW 8.0 km/h 12.9 km/h 74 % 0.0 mm
22:07 20.6 °C 15.8 °C 1021.6 hPa West 4.8 km/h 9.7 km/h 74 % 0.0 mm
22:12 20.4 °C 15.8 °C 1021.9 hPa SW 1.6 km/h 9.7 km/h 75 % 0.0 mm
22:17 20.4 °C 15.8 °C 1021.9 hPa WSW 3.2 km/h 9.7 km/h 75 % 0.0 mm
22:22 20.4 °C 15.6 °C 1021.6 hPa West 6.4 km/h 11.3 km/h 74 % 0.0 mm
22:27 20.3 °C 15.5 °C 1021.6 hPa WNW 6.4 km/h 11.3 km/h 74 % 0.0 mm
22:32 20.3 °C 15.5 °C 1021.6 hPa West 6.4 km/h 12.9 km/h 74 % 0.0 mm
22:37 20.3 °C 15.5 °C 1021.6 hPa SSW 6.4 km/h 16.1 km/h 74 % 0.0 mm
22:42 20.4 °C 15.6 °C 1021.6 hPa SW 3.2 km/h 16.1 km/h 74 % 0.0 mm
22:47 20.3 °C 15.5 °C 1021.6 hPa West 8.0 km/h 16.1 km/h 74 % 0.0 mm
22:52 20.4 °C 15.6 °C 1021.6 hPa WSW 4.8 km/h 16.1 km/h 74 % 0.0 mm
22:57 20.4 °C 15.6 °C 1021.6 hPa SW 11.3 km/h 16.1 km/h 74 % 0.0 mm
23:02 20.4 °C 15.6 °C 1021.6 hPa WSW 6.4 km/h 17.7 km/h 74 % 0.0 mm
23:12 20.3 °C 15.5 °C 1021.6 hPa West 9.7 km/h 19.3 km/h 74 % 0.0 mm
23:17 20.2 °C 15.4 °C 1021.6 hPa WSW 3.2 km/h 19.3 km/h 74 % 0.0 mm
23:22 20.2 °C 15.6 °C 1021.9 hPa SW 8.0 km/h 19.3 km/h 75 % 0.0 mm
23:27 20.1 °C 15.5 °C 1021.9 hPa West 4.8 km/h 17.7 km/h 75 % 0.0 mm
23:32 19.9 °C 15.3 °C 1021.9 hPa WSW 9.7 km/h 17.7 km/h 75 % 0.0 mm
23:37 19.9 °C 15.5 °C 1021.9 hPa SW 4.8 km/h 17.7 km/h 76 % 0.0 mm
23:42 19.8 °C 15.4 °C 1021.9 hPa WSW 4.8 km/h 17.7 km/h 76 % 0.0 mm
23:47 19.7 °C 15.3 °C 1021.9 hPa WSW 8.0 km/h 16.1 km/h 76 % 0.0 mm
23:52 19.6 °C 15.5 °C 1021.9 hPa WSW 3.2 km/h 16.1 km/h 77 % 0.0 mm
23:57 19.6 °C 15.5 °C 1021.9 hPa SW 6.4 km/h 16.1 km/h 77 % 0.0 mm
Meteo18
Compliments of Weather Underground - 4 mb

Script developed by  Jim McMurry - jmcmurry@mwt.net Adapted for the template by  Wim van der Kuil - Leuven-Template.eu

You find our weather info also at:

European Weather Network

Weather Underground

Equipment we use:

Weather-station
Davis Vue

Weather-program
Meteohub

Weather-server
Raspberry PI 2 B+

Provider
1 and 1

Davis Vue

Meteohub

Raspberry PI 2 B+

1 and 1